Time;durP1;ratioP1;P1;durP2;ratioP2;P2;SDS_P1;SDS_P2;PMS_P1;PMS_P2;Temp;Humidity;BMP_temperature;BMP_pressure;BME280_temperature;BME280_humidity;BME280_pressure;Samples;Min_cycle;Max_cycle;Signal;HPM_P1;HPM_P2
2023/08/02 07:12:04;;;;;;;11.95;4.88;;;;;;;14.21;100.00;95298.59;2089798;28;20559;-62
2023/08/02 07:14:31;;;;;;;9.18;4.50;;;;;;;14.32;100.00;95272.31;2094024;27;20570;-63
2023/08/02 07:37:00;;;;;;;11.25;4.85;;;;;;;14.72;100.00;95267.38;2090658;28;20872;-62
2023/08/02 07:39:24;;;;;;;7.03;4.05;;;;;;;14.75;100.00;95270.56;2083796;28;20561;-62
2023/08/02 07:41:51;;;;;;;8.77;4.95;;;;;;;14.72;100.00;95247.19;2084575;28;20564;-63
2023/08/02 09:18:12;;;;;;;4.90;3.20;;;;;;;15.88;100.00;95136.50;2100325;27;20565;-63
2023/08/02 09:20:29;;;;;;;6.03;3.20;;;;;;;15.97;100.00;95146.19;2099417;27;20566;-63
2023/08/02 09:22:43;;;;;;;11.45;3.88;;;;;;;16.05;100.00;95132.31;2083522;28;20557;-65
2023/08/02 09:25:11;;;;;;;8.15;3.83;;;;;;;16.11;100.00;95126.50;2085491;28;20564;-65
2023/08/02 09:26:20;;;;;;;7.45;4.65;;;;;;;16.12;100.00;95131.63;2083659;28;20715;-64
2023/08/02 09:28:37;;;;;;;6.00;3.60;;;;;;;16.22;100.00;95128.16;2089214;28;20556;-63
2023/08/02 09:29:43;;;;;;;7.07;4.10;;;;;;;16.29;100.00;95134.53;2084530;28;20668;-63
2023/08/02 09:32:10;;;;;;;8.60;3.88;;;;;;;16.28;100.00;95133.69;2083442;28;21055;-63
2023/08/02 09:33:11;;;;;;;6.18;3.88;;;;;;;16.33;100.00;95130.66;2078886;28;20210;-64
2023/08/02 09:35:51;;;;;;;7.30;3.83;;;;;;;16.36;100.00;95116.38;2083802;28;21044;-62
2023/08/02 09:36:52;;;;;;;7.55;3.90;;;;;;;16.36;100.00;95129.53;2082381;28;20297;-62
2023/08/02 09:39:30;;;;;;;6.28;3.92;;;;;;;16.39;100.00;95114.28;2079688;28;20573;-62
2023/08/02 09:40:36;;;;;;;7.55;4.03;;;;;;;16.40;100.00;95121.19;2073270;28;20563;-62
2023/08/02 09:43:21;;;;;;;7.53;4.30;;;;;;;16.45;100.00;95107.59;2100873;27;20555;-62
2023/08/02 09:44:22;;;;;;;8.60;4.72;;;;;;;16.48;100.00;95107.31;2084242;28;20959;-62
2023/08/02 09:47:12;;;;;;;10.68;4.38;;;;;;;16.46;100.00;95122.44;2107940;27;21094;-62
2023/08/02 09:48:14;;;;;;;5.97;3.83;;;;;;;16.49;100.00;95117.72;2105346;28;20245;-62
2023/08/02 09:49:20;;;;;;;9.55;4.38;;;;;;;16.51;100.00;95108.84;2103577;27;20831;-63
2023/08/02 09:50:22;;;;;;;9.00;4.25;;;;;;;16.57;100.00;95114.38;2098098;28;20286;-62
2023/08/02 09:51:43;;;;;;;7.40;3.60;;;;;;;16.53;99.65;95099.84;2097493;28;20207;-62
2023/08/02 09:52:46;;;;;;;8.77;3.78;;;;;;;16.57;100.00;95098.56;2098139;28;20198;-63
2023/08/02 09:53:56;;;;;;;5.85;3.65;;;;;;;16.63;100.00;95110.34;2098067;28;20635;-62
2023/08/02 09:54:58;;;;;;;8.57;4.60;;;;;;;16.64;99.34;95098.81;2096939;28;20233;-62
2023/08/02 09:56:01;;;;;;;6.53;2.80;;;;;;;16.67;98.77;95095.91;2096224;28;20442;-62
2023/08/02 09:57:04;;;;;;;5.80;3.50;;;;;;;16.74;99.98;95109.34;2096894;28;20185;-63
2023/08/02 09:58:06;;;;;;;10.13;3.70;;;;;;;16.88;99.70;95108.84;2096850;28;20196;-61
2023/08/02 09:59:08;;;;;;;8.15;4.30;;;;;;;16.97;99.38;95099.28;2098018;28;20220;-62
2023/08/02 10:00:10;;;;;;;7.75;4.15;;;;;;;17.15;98.61;95101.97;2097661;28;20284;-62
2023/08/02 10:01:13;;;;;;;6.80;3.38;;;;;;;17.21;97.65;95095.28;2097199;28;20207;-63
2023/08/02 10:02:16;;;;;;;9.18;3.95;;;;;;;17.17;96.39;95092.13;2097892;28;20254;-63
2023/08/02 10:03:18;;;;;;;5.63;3.45;;;;;;;17.21;97.05;95088.19;2099521;28;20291;-62
2023/08/02 10:04:27;;;;;;;6.85;4.43;;;;;;;17.26;98.20;95099.13;2098054;28;20231;-61
2023/08/02 10:05:29;;;;;;;6.70;3.92;;;;;;;17.26;98.60;95082.50;2098496;28;20234;-65
2023/08/02 10:06:46;;;;;;;9.85;3.30;;;;;;;17.17;98.43;95096.56;2097431;28;20201;-64
2023/08/02 10:07:53;;;;;;;5.93;3.67;;;;;;;17.17;99.14;95091.28;2096568;28;20287;-63
2023/08/02 10:10:28;;;;;;;6.20;3.80;;;;;;;17.10;98.64;95089.25;2103664;27;20570;-62
2023/08/02 10:13:08;;;;;;;8.63;3.92;;;;;;;16.94;99.67;95067.94;2086020;28;20564;-61
2023/08/02 10:14:10;;;;;;;6.50;3.47;;;;;;;17.00;100.00;95075.28;2074712;28;20222;-62
2023/08/02 10:15:11;;;;;;;9.50;4.00;;;;;;;17.05;100.00;95074.81;2072384;28;20605;-61
2023/08/02 10:16:13;;;;;;;6.22;3.50;;;;;;;17.07;100.00;95078.16;2074525;28;20564;-61
2023/08/02 10:17:16;;;;;;;5.60;3.35;;;;;;;17.16;100.00;95081.72;2074132;28;20202;-62
2023/08/02 10:18:18;;;;;;;10.70;4.10;;;;;;;17.07;100.00;95078.97;2073941;28;20199;-62
2023/08/02 10:19:20;;;;;;;5.65;3.25;;;;;;;17.03;100.00;95077.59;2073103;28;20221;-62
2023/08/02 10:22:04;;;;;;;6.88;3.92;;;;;;;16.94;100.00;95067.94;2082679;28;20563;-65
2023/08/02 10:24:44;;;;;;;6.07;3.45;;;;;;;16.87;100.00;95067.66;2099112;27;21164;-65
2023/08/02 10:27:28;;;;;;;5.07;3.08;;;;;;;16.79;100.00;95065.75;2084602;28;20564;-63
2023/08/02 10:30:09;;;;;;;5.60;3.17;;;;;;;16.84;100.00;95056.59;2094959;28;20551;-63
2023/08/02 10:33:21;;;;;;;5.45;3.38;;;;;;;16.81;100.00;95049.78;2098299;27;20554;-62
2023/08/02 10:47:32;;;;;;;6.40;3.22;;;;;;;16.93;100.00;95024.09;2094827;27;20533;-63
2023/08/02 10:48:34;;;;;;;6.93;3.63;;;;;;;17.03;99.50;95026.69;2093975;28;20199;-63
2023/08/02 10:49:37;;;;;;;6.22;3.53;;;;;;;17.09;99.33;95026.94;2078676;28;20944;-63
2023/08/02 10:50:45;;;;;;;7.03;3.65;;;;;;;17.16;98.31;95040.34;2077620;28;20709;-63
2023/08/02 10:51:46;;;;;;;10.70;4.50;;;;;;;17.22;99.45;95038.94;2076981;28;20620;-62
2023/08/02 10:52:48;;;;;;;6.25;4.00;;;;;;;17.24;98.97;95029.88;2076243;28;20280;-62
2023/08/02 10:54:08;;;;;;;6.45;3.85;;;;;;;17.28;99.42;95028.59;2076537;28;20202;-63
2023/08/02 10:55:10;;;;;;;5.43;3.60;;;;;;;17.32;99.61;95033.56;2073772;28;20189;-62
2023/08/02 10:56:16;;;;;;;7.97;3.78;;;;;;;17.33;98.13;95028.16;2074196;28;20197;-62
2023/08/02 10:58:52;;;;;;;7.10;3.70;;;;;;;17.33;99.71;95014.97;2093419;27;20536;-64
2023/08/02 11:01:24;;;;;;;9.13;3.30;;;;;;;17.36;98.71;95013.84;2084091;28;20573;-62
2023/08/02 11:02:42;;;;;;;6.30;3.70;;;;;;;17.36;98.41;95016.50;2082560;28;20817;-62
2023/08/02 11:05:06;;;;;;;9.43;3.97;;;;;;;17.40;98.76;95021.28;2090344;28;20545;-62
2023/08/02 11:06:22;;;;;;;6.38;3.50;;;;;;;17.50;98.01;95018.59;2088213;28;20192;-63
2023/08/02 11:09:00;;;;;;;5.35;3.22;;;;;;;17.60;97.87;95013.25;2084669;28;20588;-63
2023/08/02 11:10:05;;;;;;;9.18;4.45;;;;;;;17.67;97.42;95011.63;2081962;28;20195;-62
2023/08/02 11:11:06;;;;;;;5.85;3.47;;;;;;;17.76;95.93;95010.75;2081860;28;20288;-62
2023/08/02 11:12:12;;;;;;;9.27;3.97;;;;;;;17.82;95.01;95004.00;2078934;28;20791;-63
2023/08/02 11:13:14;;;;;;;7.20;3.95;;;;;;;18.00;93.48;95014.56;2081435;28;20197;-62
2023/08/02 11:14:27;;;;;;;6.28;3.85;;;;;;;18.16;94.36;94994.56;2079185;28;20228;-62
2023/08/02 11:15:28;;;;;;;6.53;3.85;;;;;;;18.21;94.69;94995.72;2082878;28;20223;-63
2023/08/02 11:16:30;;;;;;;11.07;3.40;;;;;;;18.27;94.03;94987.19;2079090;28;20192;-62
2023/08/02 11:17:35;;;;;;;9.05;4.20;;;;;;;18.39;93.85;94994.84;2081732;28;20200;-63
2023/08/02 11:18:40;;;;;;;7.25;4.22;;;;;;;18.44;93.06;94996.00;2083999;28;20204;-62
2023/08/02 11:19:48;;;;;;;7.45;3.40;;;;;;;18.50;93.10;95006.94;2083871;28;20323;-63
2023/08/02 11:20:52;;;;;;;11.73;5.80;;;;;;;18.58;93.12;94985.84;2081716;28;20196;-63
2023/08/02 11:21:55;;;;;;;7.78;4.07;;;;;;;18.63;91.36;94978.28;2080630;28;20813;-63
2023/08/02 11:22:56;;;;;;;10.73;4.43;;;;;;;18.70;91.92;94996.97;2083309;28;20228;-63
2023/08/02 11:23:59;;;;;;;8.13;4.57;;;;;;;18.71;91.53;95004.72;2080631;28;20197;-63
2023/08/02 11:25:03;;;;;;;8.05;4.00;;;;;;;18.78;90.69;94986.44;2081188;28;20229;-63
2023/08/02 11:26:09;;;;;;;7.10;3.97;;;;;;;18.85;90.48;94989.25;2082344;28;20193;-63
2023/08/02 11:27:18;;;;;;;7.05;4.05;;;;;;;18.85;91.52;95000.66;2082770;28;20196;-63
2023/08/02 11:28:20;;;;;;;7.05;3.40;;;;;;;18.92;89.56;95009.63;2079531;28;20219;-63
2023/08/02 11:29:21;;;;;;;9.30;4.15;;;;;;;18.97;88.95;94995.09;2081098;28;20228;-63
2023/08/02 11:30:23;;;;;;;8.80;4.00;;;;;;;19.03;89.52;95000.59;2084031;28;20289;-63
2023/08/02 11:31:31;;;;;;;7.55;4.30;;;;;;;19.10;89.27;94984.91;2080109;28;21080;-63
2023/08/02 11:32:33;;;;;;;5.68;3.95;;;;;;;19.19;89.53;94983.91;2083435;28;20243;-63
2023/08/02 11:33:37;;;;;;;7.72;3.60;;;;;;;19.34;88.28;94996.53;2082767;28;20652;-63
2023/08/02 11:34:39;;;;;;;5.60;3.45;;;;;;;19.34;87.58;94993.88;2080657;28;20224;-63
2023/08/02 11:35:41;;;;;;;7.07;4.03;;;;;;;19.44;88.77;94983.13;2078787;28;20204;-63
2023/08/02 11:36:42;;;;;;;7.35;4.18;;;;;;;19.50;88.46;94980.66;2081165;28;20204;-63
2023/08/02 11:37:48;;;;;;;8.13;3.75;;;;;;;19.49;87.64;94983.47;2083930;28;20212;-63
2023/08/02 11:38:49;;;;;;;7.43;4.07;;;;;;;19.50;87.14;94985.97;2080753;28;21038;-63
2023/08/02 11:39:56;;;;;;;6.97;3.72;;;;;;;19.54;87.06;94982.00;2081283;28;20819;-63
2023/08/02 11:41:00;;;;;;;9.40;4.03;;;;;;;19.54;87.38;94984.63;2079372;28;20201;-63
2023/08/02 11:42:03;;;;;;;13.07;4.55;;;;;;;19.56;87.39;94980.00;2081283;28;20216;-63
2023/08/02 11:43:07;;;;;;;10.73;3.92;;;;;;;19.56;86.17;95001.16;2083149;28;20205;-64
2023/08/02 11:44:15;;;;;;;5.60;3.40;;;;;;;19.57;86.50;94973.72;2081879;28;20217;-63
2023/08/02 11:45:31;;;;;;;8.98;3.80;;;;;;;19.65;87.22;94975.53;2082061;28;20197;-63
2023/08/02 11:46:33;;;;;;;9.82;4.00;;;;;;;19.61;86.84;94968.91;2082536;28;20627;-62
2023/08/02 11:47:35;;;;;;;8.98;4.20;;;;;;;19.72;86.72;94973.88;2081455;28;20291;-63
2023/08/02 11:48:37;;;;;;;7.97;3.60;;;;;;;19.70;86.42;94973.22;2081325;28;20206;-63
2023/08/02 11:49:59;;;;;;;8.65;4.28;;;;;;;19.70;84.82;94959.97;2079384;28;20855;-63
2023/08/02 11:51:02;;;;;;;8.02;3.45;;;;;;;19.80;85.44;94966.94;2081365;28;20246;-63
2023/08/02 11:52:04;;;;;;;5.93;3.47;;;;;;;19.83;85.34;94966.63;2082840;28;20589;-63
2023/08/02 11:53:09;;;;;;;5.03;2.95;;;;;;;19.85;84.20;94965.47;2081667;28;20699;-63
2023/08/02 11:54:12;;;;;;;8.90;3.33;;;;;;;19.86;83.83;94953.06;2081535;28;20228;-63
2023/08/02 11:55:14;;;;;;;6.10;3.60;;;;;;;19.88;84.53;94978.38;2083150;28;20192;-65
2023/08/02 11:56:16;;;;;;;5.55;2.90;;;;;;;19.89;84.92;94961.47;2081561;28;20236;-63
2023/08/02 11:57:18;;;;;;;9.23;3.78;;;;;;;19.97;84.26;94960.66;2084186;28;20207;-63
2023/08/02 11:58:19;;;;;;;7.15;3.85;;;;;;;20.04;84.29;94976.72;2081930;28;20235;-64
2023/08/02 11:59:21;;;;;;;6.43;3.58;;;;;;;20.05;84.44;94960.63;2081579;28;20221;-63
2023/08/02 12:00:23;;;;;;;6.43;3.40;;;;;;;20.09;84.35;94955.84;2081534;28;20331;-63
2023/08/02 12:01:24;;;;;;;5.03;3.17;;;;;;;20.12;84.14;94968.72;2081766;28;20247;-63
2023/08/02 12:02:28;;;;;;;5.70;3.42;;;;;;;20.15;84.61;94967.56;2078642;28;20274;-63
2023/08/02 12:03:30;;;;;;;9.45;3.75;;;;;;;20.25;84.12;94960.25;2081270;28;20197;-64
2023/08/02 12:04:39;;;;;;;4.78;2.55;;;;;;;20.29;84.10;94961.59;2080703;28;20276;-63
2023/08/02 12:05:42;;;;;;;8.57;3.67;;;;;;;20.33;84.43;94956.78;2080961;28;20200;-64
2023/08/02 12:06:49;;;;;;;5.85;3.80;;;;;;;20.38;84.34;94955.25;2080786;28;20204;-63
2023/08/02 12:07:51;;;;;;;9.57;3.95;;;;;;;20.42;83.55;94957.56;2080831;28;20200;-63
2023/08/02 12:08:59;;;;;;;7.47;3.40;;;;;;;20.50;83.55;94960.19;2079080;28;20236;-63
2023/08/02 12:10:07;;;;;;;9.00;2.83;;;;;;;20.59;81.15;94955.69;2081339;28;20216;-64
2023/08/02 12:11:12;;;;;;;4.63;3.13;;;;;;;20.68;81.21;94944.88;2082644;28;20197;-64
2023/08/02 12:12:14;;;;;;;5.80;3.10;;;;;;;20.79;81.61;94946.34;2080299;28;20201;-64
2023/08/02 12:13:17;;;;;;;6.00;3.10;;;;;;;20.83;80.95;94945.00;2081915;28;20308;-64
2023/08/02 12:14:29;;;;;;;7.65;3.85;;;;;;;20.87;80.75;94946.31;2080781;28;20229;-64
2023/08/02 12:15:31;;;;;;;6.90;3.10;;;;;;;21.17;79.80;94950.97;2082312;28;20650;-64
2023/08/02 12:16:43;;;;;;;5.50;2.95;;;;;;;21.29;78.73;94946.91;2078494;28;20250;-64
2023/08/02 12:17:45;;;;;;;5.28;2.90;;;;;;;21.40;78.63;94944.84;2082654;28;20247;-64
2023/08/02 12:18:54;;;;;;;5.47;2.80;;;;;;;21.66;77.13;94969.22;2083666;28;20202;-64
2023/08/02 12:19:56;;;;;;;8.35;2.72;;;;;;;21.78;76.85;94943.06;2080451;28;20232;-64
2023/08/02 12:20:57;;;;;;;6.63;3.45;;;;;;;22.02;75.83;94935.88;2078491;28;20583;-64
2023/08/02 12:21:59;;;;;;;5.43;3.30;;;;;;;22.15;76.71;94936.06;2076380;28;20193;-64
2023/08/02 12:23:01;;;;;;;5.18;2.70;;;;;;;22.03;75.23;94916.28;2074443;28;20201;-64
2023/08/02 12:24:16;;;;;;;7.18;2.97;;;;;;;21.81;76.44;94939.22;2075972;28;20235;-64
2023/08/02 12:25:18;;;;;;;6.03;3.05;;;;;;;21.64;76.44;94936.69;2077262;28;20231;-64
2023/08/02 12:26:38;;;;;;;7.05;3.30;;;;;;;21.65;77.56;94943.66;2076280;28;20305;-64
2023/08/02 12:27:40;;;;;;;4.32;3.20;;;;;;;21.53;77.50;94945.06;2076109;28;20205;-64
2023/08/02 12:28:46;;;;;;;8.13;3.28;;;;;;;21.42;77.79;94935.69;2077635;28;20201;-64
2023/08/02 12:29:49;;;;;;;6.55;2.55;;;;;;;21.68;76.06;94927.34;2077297;28;20336;-64
2023/08/02 12:31:04;;;;;;;5.15;2.50;;;;;;;21.76;76.49;94941.59;2076185;28;20200;-65
2023/08/02 12:32:06;;;;;;;9.18;3.17;;;;;;;21.60;76.38;94947.84;2076142;28;20201;-64
2023/08/02 12:33:07;;;;;;;6.65;3.08;;;;;;;21.56;77.34;94938.59;2076141;28;20246;-64
2023/08/02 12:34:09;;;;;;;4.63;2.45;;;;;;;21.52;76.58;94961.97;2074413;28;20229;-64
2023/08/02 12:35:13;;;;;;;6.25;2.90;;;;;;;21.43;77.08;94936.50;2075564;28;20198;-64
2023/08/02 12:36:28;;;;;;;7.45;2.55;;;;;;;21.35;77.54;94940.06;2072994;28;20740;-64
2023/08/02 12:37:29;;;;;;;3.22;2.10;;;;;;;21.35;77.80;94948.81;2074736;28;20197;-65
2023/08/02 12:38:31;;;;;;;4.78;2.88;;;;;;;21.36;77.99;94929.25;2076273;28;20201;-64
2023/08/02 12:39:33;;;;;;;4.72;2.30;;;;;;;21.31;78.92;94931.59;2075433;28;20217;-64
2023/08/02 12:40:34;;;;;;;4.80;2.80;;;;;;;21.37;78.64;94927.44;2075905;28;20197;-65
2023/08/02 12:41:36;;;;;;;8.48;3.55;;;;;;;21.40;79.22;94932.38;2076706;28;20213;-65
2023/08/02 12:42:37;;;;;;;7.10;3.22;;;;;;;21.32;78.32;94933.28;2072891;28;20320;-65
2023/08/02 12:43:57;;;;;;;12.07;2.88;;;;;;;21.28;78.68;94939.09;2076541;28;20208;-64
2023/08/02 12:45:05;;;;;;;7.20;2.78;;;;;;;21.21;77.74;94945.09;2076528;28;20629;-64
2023/08/02 12:46:19;;;;;;;8.02;3.20;;;;;;;21.22;78.23;94935.34;2078239;28;20200;-64
2023/08/02 12:47:21;;;;;;;11.50;4.07;;;;;;;21.23;78.53;94944.09;2076642;28;20246;-64
2023/08/02 12:48:22;;;;;;;7.05;2.95;;;;;;;21.21;78.75;94944.28;2075278;28;20205;-64
2023/08/02 12:49:24;;;;;;;4.15;2.20;;;;;;;21.18;78.51;94934.03;2073592;28;20220;-64
2023/08/02 12:50:25;;;;;;;6.72;3.22;;;;;;;21.14;78.82;94928.25;2075047;28;20197;-64
2023/08/02 12:51:29;;;;;;;5.25;2.80;;;;;;;21.10;79.23;94934.06;2073339;28;20202;-65
2023/08/02 12:52:30;;;;;;;7.03;3.42;;;;;;;21.12;79.06;94935.56;2075771;28;20201;-64
2023/08/02 12:53:32;;;;;;;4.85;2.55;;;;;;;21.11;78.48;94931.25;2076418;28;20197;-65
2023/08/02 12:54:33;;;;;;;4.95;3.13;;;;;;;21.12;78.88;94937.38;2076217;28;20225;-65
2023/08/02 12:55:35;;;;;;;5.55;2.85;;;;;;;21.09;79.24;94935.06;2076520;28;20205;-65
2023/08/02 12:56:36;;;;;;;4.68;2.55;;;;;;;21.13;79.53;94944.34;2074811;28;20601;-65
2023/08/02 12:57:38;;;;;;;4.75;2.60;;;;;;;21.10;79.68;94926.94;2072812;28;20206;-65
2023/08/02 12:58:39;;;;;;;4.20;3.05;;;;;;;21.08;78.05;94931.59;2073372;28;20237;-65
2023/08/02 12:59:41;;;;;;;9.75;2.75;;;;;;;21.13;79.20;94937.22;2075951;28;20229;-65
2023/08/02 13:00:42;;;;;;;5.38;3.00;;;;;;;21.02;79.17;94935.78;2077035;28;20883;-65
2023/08/02 13:01:44;;;;;;;5.78;3.42;;;;;;;21.07;79.54;94942.41;2072844;28;20198;-65
2023/08/02 13:02:46;;;;;;;4.63;3.05;;;;;;;21.11;79.43;94930.44;2072897;28;20622;-65
2023/08/02 13:03:47;;;;;;;9.63;3.42;;;;;;;21.10;79.65;94929.59;2073349;28;20542;-65
2023/08/02 13:04:49;;;;;;;6.00;2.75;;;;;;;21.07;79.60;94907.91;2076314;28;20194;-65
2023/08/02 13:05:51;;;;;;;5.72;2.70;;;;;;;21.02;79.09;94935.78;2076187;28;20197;-65
2023/08/02 13:06:52;;;;;;;4.28;2.60;;;;;;;21.01;78.92;94934.16;2076299;28;20618;-64
2023/08/02 13:07:56;;;;;;;4.70;2.33;;;;;;;21.01;78.76;94928.00;2072593;28;20198;-65
2023/08/02 13:08:58;;;;;;;4.97;2.70;;;;;;;21.10;79.49;94931.44;2073730;28;20799;-65
2023/08/02 13:09:59;;;;;;;6.05;2.72;;;;;;;21.13;79.30;94939.06;2076202;28;20832;-65
2023/08/02 13:11:01;;;;;;;4.47;2.60;;;;;;;21.19;78.95;94938.31;2074208;28;20197;-65
2023/08/02 13:12:03;;;;;;;7.35;2.97;;;;;;;21.26;78.94;94931.31;2075185;28;20233;-65
2023/08/02 13:13:09;;;;;;;6.82;3.25;;;;;;;21.29;79.58;94938.94;2074931;28;20281;-64
2023/08/02 13:14:10;;;;;;;5.78;2.85;;;;;;;21.24;79.64;94951.06;2075656;28;20224;-65
2023/08/02 13:15:12;;;;;;;7.75;3.20;;;;;;;21.08;80.85;94941.38;2076248;28;20242;-65
2023/08/02 13:16:13;;;;;;;4.10;2.50;;;;;;;21.02;80.92;94943.72;2072723;28;20201;-65
2023/08/02 13:17:18;;;;;;;5.75;3.05;;;;;;;20.94;82.22;94943.78;2073479;28;20194;-65
2023/08/02 13:18:20;;;;;;;5.07;2.60;;;;;;;20.92;83.05;94947.63;2076699;28;20208;-65
2023/08/02 13:19:21;;;;;;;5.05;2.50;;;;;;;20.83;81.36;94938.88;2075556;28;20226;-65
2023/08/02 13:20:23;;;;;;;4.40;2.83;;;;;;;20.79;82.43;94941.03;2076596;28;20202;-65
2023/08/02 13:21:24;;;;;;;3.83;2.47;;;;;;;20.75;81.79;94936.25;2075730;28;20208;-65
2023/08/02 13:22:26;;;;;;;7.25;3.30;;;;;;;20.74;82.58;94927.47;2076438;28;20197;-65
2023/08/02 13:23:27;;;;;;;9.43;3.28;;;;;;;20.74;82.89;94932.78;2072374;28;20251;-65
2023/08/02 13:24:29;;;;;;;6.15;2.80;;;;;;;20.77;83.01;94944.88;2071913;28;20321;-67
2023/08/02 13:25:33;;;;;;;5.32;2.85;;;;;;;20.79;82.46;94934.94;2072548;28;20293;-67
2023/08/02 13:26:35;;;;;;;4.93;2.90;;;;;;;20.89;82.45;94935.53;2076575;28;20225;-67
2023/08/02 13:27:36;;;;;;;8.32;2.80;;;;;;;20.94;82.25;94938.47;2074871;28;20198;-67
2023/08/02 13:28:37;;;;;;;6.97;3.60;;;;;;;21.00;82.55;94932.47;2072624;28;20217;-67
2023/08/02 13:29:39;;;;;;;5.30;2.95;;;;;;;20.95;83.06;94942.78;2072766;28;20751;-67
2023/08/02 13:30:40;;;;;;;5.95;2.30;;;;;;;20.87;83.45;94934.88;2075842;28;20212;-67
2023/08/02 13:31:42;;;;;;;8.27;2.70;;;;;;;20.86;84.75;94933.22;2075853;28;20247;-67
2023/08/02 13:32:43;;;;;;;5.65;2.60;;;;;;;20.87;84.56;94932.22;2077845;28;20205;-66
2023/08/02 13:33:46;;;;;;;5.05;2.78;;;;;;;20.85;83.88;94940.34;2075708;28;20270;-66
2023/08/02 13:34:47;;;;;;;3.85;2.53;;;;;;;20.78;84.31;94944.69;2074967;28;20289;-66
2023/08/02 13:35:49;;;;;;;5.70;2.45;;;;;;;20.77;83.93;94936.91;2076668;28;20656;-67
2023/08/02 13:36:50;;;;;;;3.65;2.72;;;;;;;20.76;83.93;94925.50;2072346;28;20296;-67
2023/08/02 13:37:52;;;;;;;5.90;2.72;;;;;;;20.80;84.97;94926.78;2072729;28;20723;-67
2023/08/02 13:38:53;;;;;;;8.65;2.30;;;;;;;20.82;85.91;94923.94;2076447;28;20205;-67
2023/08/02 13:39:55;;;;;;;4.50;2.80;;;;;;;20.82;84.38;94916.84;2074818;28;20247;-67
2023/08/02 13:40:57;;;;;;;10.27;2.67;;;;;;;20.89;83.02;94914.31;2075600;28;20190;-67
2023/08/02 13:42:01;;;;;;;4.70;2.90;;;;;;;21.04;83.67;94901.94;2075366;28;20209;-67
2023/08/02 13:43:03;;;;;;;4.60;2.08;;;;;;;21.16;83.29;94909.50;2075814;28;20277;-67
2023/08/02 13:44:04;;;;;;;4.60;2.45;;;;;;;21.35;82.07;94903.69;2071548;28;20225;-67
2023/08/02 13:45:06;;;;;;;5.45;2.92;;;;;;;21.53;81.41;94891.94;2072617;28;20198;-67
2023/08/02 13:46:08;;;;;;;5.20;2.47;;;;;;;21.84;78.90;94901.69;2076090;28;20236;-69
2023/08/02 13:47:09;;;;;;;10.32;5.35;;;;;;;22.07;77.86;94871.53;2075645;28;20200;-66
2023/08/02 13:48:11;;;;;;;4.80;2.13;;;;;;;22.58;78.16;94876.94;2072503;28;20208;-69
2023/08/02 13:49:13;;;;;;;10.75;2.42;;;;;;;22.78;75.96;94889.66;2074554;28;20217;-67
2023/08/02 13:50:15;;;;;;;5.55;2.40;;;;;;;22.69;75.12;94893.44;2077423;28;20300;-67
2023/08/02 13:51:16;;;;;;;9.68;2.63;;;;;;;22.87;76.01;94875.22;2075509;28;20209;-67
2023/08/02 13:52:18;;;;;;;4.80;1.98;;;;;;;22.72;75.08;94879.78;2074483;28;20200;-67
2023/08/02 13:53:19;;;;;;;5.15;2.13;;;;;;;22.96;75.01;94871.44;2075386;28;20209;-67
2023/08/02 13:54:21;;;;;;;9.30;2.10;;;;;;;22.97;74.00;94867.75;2077904;28;20316;-67
2023/08/02 13:55:22;;;;;;;4.80;2.30;;;;;;;22.79;73.97;94862.88;2077255;28;20236;-68
2023/08/02 13:56:24;;;;;;;5.40;2.05;;;;;;;23.23;73.21;94870.91;2072275;28;20202;-68
2023/08/02 13:57:25;;;;;;;3.40;1.67;;;;;;;23.26;71.90;94879.34;2072794;28;20209;-68
2023/08/02 13:58:26;;;;;;;4.47;2.70;;;;;;;23.16;72.54;94868.19;2074332;28;20194;-68
2023/08/02 13:59:28;;;;;;;3.58;1.83;;;;;;;23.27;72.70;94866.84;2072764;28;20907;-68
2023/08/02 14:00:30;;;;;;;6.82;2.08;;;;;;;22.95;71.42;94864.44;2072095;28;20277;-67
2023/08/02 14:01:31;;;;;;;5.65;1.80;;;;;;;22.53;73.88;94854.59;2075771;28;20200;-67
2023/08/02 14:02:33;;;;;;;3.17;2.22;;;;;;;22.25;74.24;94887.94;2073584;28;20623;-66
2023/08/02 14:03:34;;;;;;;3.60;2.10;;;;;;;22.16;74.87;94846.53;2074143;28;20189;-67
2023/08/02 14:04:36;;;;;;;4.47;2.15;;;;;;;22.07;75.65;94856.44;2074320;28;20680;-67
2023/08/02 14:05:37;;;;;;;5.18;2.05;;;;;;;21.85;75.67;94845.72;2075742;28;20205;-66
2023/08/02 14:06:39;;;;;;;5.85;2.40;;;;;;;21.86;76.29;94862.47;2072282;28;20813;-67
2023/08/02 14:07:40;;;;;;;10.70;2.65;;;;;;;21.80;76.22;94858.72;2073750;28;20209;-67
2023/08/02 14:08:42;;;;;;;6.40;1.85;;;;;;;21.66;77.19;94859.50;2075910;28;20244;-67
2023/08/02 14:09:43;;;;;;;4.80;2.05;;;;;;;21.56;77.54;94862.44;2071923;28;20300;-67
2023/08/02 14:10:46;;;;;;;7.22;2.47;;;;;;;21.44;78.58;94867.28;2075520;28;20192;-67
2023/08/02 14:11:47;;;;;;;4.25;2.03;;;;;;;21.13;79.99;94880.69;2075493;28;20201;-66
2023/08/02 14:12:49;;;;;;;4.38;1.90;;;;;;;20.74;82.24;94895.66;2072071;28;20197;-65
2023/08/02 14:23:35;;;;;;;6.80;2.42;;;;;;;18.87;96.35;94863.00;2101106;27;20577;-63
2023/08/02 14:26:26;;;;;;;3.13;1.90;;;;;;;18.80;96.73;94854.06;2076403;28;20584;-61
2023/08/02 14:27:27;;;;;;;6.10;2.42;;;;;;;18.82;96.54;94860.03;2072911;28;20189;-61
2023/08/02 14:30:26;;;;;;;9.50;2.92;;;;;;;18.79;97.22;94849.75;2082818;28;20564;-61
2023/08/02 14:33:20;;;;;;;4.90;2.22;;;;;;;18.72;97.97;94850.41;2093055;27;21045;-63
2023/08/02 14:36:22;;;;;;;9.35;2.45;;;;;;;18.82;98.05;94855.56;2083431;28;20557;-60
2023/08/02 14:39:27;;;;;;;6.80;2.95;;;;;;;18.97;99.34;94863.72;2073615;28;20573;-61
2023/08/02 14:40:28;;;;;;;8.07;4.25;;;;;;;19.05;97.36;94857.59;2064120;28;20401;-61
2023/08/02 14:41:30;;;;;;;5.20;2.72;;;;;;;19.10;97.32;94863.22;2066136;28;20194;-61
2023/08/02 14:44:42;;;;;;;8.40;2.50;;;;;;;19.14;96.82;94842.56;2073329;27;20584;-61
2023/08/02 14:47:30;;;;;;;7.38;2.40;;;;;;;19.24;94.62;94851.16;2106837;27;20571;-62
2023/08/02 14:48:32;;;;;;;4.45;2.70;;;;;;;19.28;95.07;94847.19;2105092;28;20285;-60
2023/08/02 14:51:45;;;;;;;6.35;2.45;;;;;;;19.50;92.37;94828.97;2084205;28;20577;-64
2023/08/02 14:52:46;;;;;;;5.43;2.25;;;;;;;19.56;92.32;94836.22;2081377;28;20828;-66
2023/08/02 14:53:47;;;;;;;8.95;2.50;;;;;;;19.60;92.51;94848.13;2078148;28;20201;-63
2023/08/02 14:54:59;;;;;;;3.75;2.15;;;;;;;19.69;90.89;94830.41;2069390;28;20198;-65
2023/08/02 14:56:01;;;;;;;4.63;2.30;;;;;;;19.85;90.09;94822.44;2068725;28;20777;-65
2023/08/02 14:57:05;;;;;;;7.55;2.47;;;;;;;19.95;89.32;94818.78;2068304;28;20206;-63
2023/08/02 14:58:07;;;;;;;5.43;2.53;;;;;;;20.14;88.97;94807.78;2069599;28;20209;-63
2023/08/02 14:59:08;;;;;;;6.07;2.30;;;;;;;20.15;88.79;94809.44;2069308;28;20221;-64
2023/08/02 15:00:10;;;;;;;3.75;2.20;;;;;;;20.22;87.44;94804.28;2069280;28;20202;-63
2023/08/02 15:01:12;;;;;;;5.28;2.55;;;;;;;20.25;87.28;94801.25;2071079;28;20248;-63
2023/08/02 15:02:13;;;;;;;3.45;2.03;;;;;;;20.28;87.18;94795.63;2073203;28;20209;-63
2023/08/02 15:03:16;;;;;;;6.38;3.22;;;;;;;20.42;86.57;94796.72;2073401;28;20201;-63
2023/08/02 15:04:17;;;;;;;3.22;2.10;;;;;;;20.88;85.26;94793.28;2070011;28;20741;-63
2023/08/02 15:05:20;;;;;;;12.60;2.00;;;;;;;21.19;84.15;94793.22;2070181;28;20202;-62
2023/08/02 15:06:24;;;;;;;3.58;2.22;;;;;;;21.43;82.92;94793.97;2072522;28;20197;-63
2023/08/02 15:07:26;;;;;;;4.13;2.15;;;;;;;21.66;81.88;94783.31;2073542;28;20723;-63
2023/08/02 15:08:28;;;;;;;6.82;2.47;;;;;;;21.71;81.80;94784.59;2075918;28;20189;-62
2023/08/02 15:09:30;;;;;;;6.50;2.03;;;;;;;21.78;80.75;94802.28;2073587;28;20371;-62
2023/08/02 15:10:32;;;;;;;3.50;1.95;;;;;;;21.87;81.49;94789.72;2073929;28;20206;-62
2023/08/02 15:11:33;;;;;;;4.35;2.03;;;;;;;21.80;80.10;94786.16;2075180;28;20967;-62
2023/08/02 15:12:35;;;;;;;3.17;1.75;;;;;;;21.88;80.19;94786.06;2072807;28;20240;-62
2023/08/02 15:13:36;;;;;;;6.68;2.22;;;;;;;21.99;79.69;94803.38;2072473;28;20771;-63
2023/08/02 15:14:38;;;;;;;3.17;2.22;;;;;;;22.09;80.49;94781.81;2072755;28;20221;-62
2023/08/02 15:15:41;;;;;;;3.05;2.00;;;;;;;22.24;80.52;94777.31;2074994;28;20530;-63
2023/08/02 15:16:42;;;;;;;6.22;2.50;;;;;;;22.31;79.85;94780.06;2076727;28;20288;-62
2023/08/02 15:17:44;;;;;;;3.95;2.25;;;;;;;22.39;77.80;94776.50;2073844;28;20285;-63
2023/08/02 15:18:46;;;;;;;4.40;2.13;;;;;;;22.47;77.84;94789.66;2073699;28;20646;-63
2023/08/02 15:19:47;;;;;;;2.28;1.60;;;;;;;22.47;76.92;94785.19;2072031;28;20258;-62